sensor_id;sensor_type;location;lat;lon;timestamp;P1;durP1;ratioP1;P2;durP2;ratioP2
67798;SDS011;54596;43.216;27.904;2023-02-28T00:02:20;8.23;;;4.57;;
67798;SDS011;54596;43.216;27.904;2023-02-28T00:04:45;8.60;;;4.65;;
67798;SDS011;54596;43.216;27.904;2023-02-28T00:07:25;8.27;;;4.75;;
67798;SDS011;54596;43.216;27.904;2023-02-28T00:09:52;8.48;;;4.90;;
67798;SDS011;54596;43.216;27.904;2023-02-28T00:12:18;7.47;;;4.13;;
67798;SDS011;54596;43.216;27.904;2023-02-28T00:14:43;7.75;;;4.55;;
67798;SDS011;54596;43.216;27.904;2023-02-28T00:17:09;8.27;;;4.70;;
67798;SDS011;54596;43.216;27.904;2023-02-28T00:19:34;9.02;;;4.72;;
67798;SDS011;54596;43.216;27.904;2023-02-28T00:22:00;8.25;;;4.40;;
67798;SDS011;54596;43.216;27.904;2023-02-28T00:24:25;8.55;;;4.70;;
67798;SDS011;54596;43.216;27.904;2023-02-28T00:26:51;8.20;;;4.93;;
67798;SDS011;54596;43.216;27.904;2023-02-28T00:29:16;8.05;;;4.70;;
67798;SDS011;54596;43.216;27.904;2023-02-28T00:31:42;8.70;;;4.95;;
67798;SDS011;54596;43.216;27.904;2023-02-28T00:34:07;10.05;;;5.32;;
67798;SDS011;54596;43.216;27.904;2023-02-28T00:36:33;9.73;;;5.05;;
67798;SDS011;54596;43.216;27.904;2023-02-28T00:38:58;7.82;;;5.05;;
67798;SDS011;54596;43.216;27.904;2023-02-28T00:41:23;7.68;;;4.50;;
67798;SDS011;54596;43.216;27.904;2023-02-28T00:43:49;8.45;;;4.97;;
67798;SDS011;54596;43.216;27.904;2023-02-28T00:46:15;10.02;;;4.97;;
67798;SDS011;54596;43.216;27.904;2023-02-28T00:48:40;9.68;;;5.40;;
67798;SDS011;54596;43.216;27.904;2023-02-28T00:51:06;9.10;;;5.13;;
67798;SDS011;54596;43.216;27.904;2023-02-28T00:53:31;8.38;;;5.25;;
67798;SDS011;54596;43.216;27.904;2023-02-28T00:56:00;7.63;;;4.85;;
67798;SDS011;54596;43.216;27.904;2023-02-28T00:58:26;7.70;;;4.93;;
67798;SDS011;54596;43.216;27.904;2023-02-28T01:00:51;7.80;;;4.68;;
67798;SDS011;54596;43.216;27.904;2023-02-28T01:03:18;8.00;;;5.05;;
67798;SDS011;54596;43.216;27.904;2023-02-28T01:05:45;8.65;;;5.15;;
67798;SDS011;54596;43.216;27.904;2023-02-28T01:08:11;8.23;;;5.28;;
67798;SDS011;54596;43.216;27.904;2023-02-28T01:10:37;7.85;;;4.95;;
67798;SDS011;54596;43.216;27.904;2023-02-28T01:13:03;8.65;;;5.50;;
67798;SDS011;54596;43.216;27.904;2023-02-28T01:15:29;8.65;;;5.10;;
67798;SDS011;54596;43.216;27.904;2023-02-28T01:17:56;8.57;;;5.57;;
67798;SDS011;54596;43.216;27.904;2023-02-28T01:20:22;8.55;;;5.30;;
67798;SDS011;54596;43.216;27.904;2023-02-28T01:22:48;8.43;;;5.45;;
67798;SDS011;54596;43.216;27.904;2023-02-28T01:25:13;8.90;;;5.70;;
67798;SDS011;54596;43.216;27.904;2023-02-28T01:27:39;9.10;;;5.78;;
67798;SDS011;54596;43.216;27.904;2023-02-28T01:30:05;10.05;;;6.20;;
67798;SDS011;54596;43.216;27.904;2023-02-28T01:32:32;9.40;;;6.15;;
67798;SDS011;54596;43.216;27.904;2023-02-28T01:34:57;10.60;;;6.70;;
67798;SDS011;54596;43.216;27.904;2023-02-28T01:37:23;10.52;;;6.80;;
67798;SDS011;54596;43.216;27.904;2023-02-28T01:39:49;10.70;;;7.00;;
67798;SDS011;54596;43.216;27.904;2023-02-28T01:42:14;10.15;;;6.78;;
67798;SDS011;54596;43.216;27.904;2023-02-28T01:47:39;9.23;;;6.63;;
67798;SDS011;54596;43.216;27.904;2023-02-28T01:50:07;10.02;;;6.80;;
67798;SDS011;54596;43.216;27.904;2023-02-28T01:52:36;9.10;;;6.63;;
67798;SDS011;54596;43.216;27.904;2023-02-28T01:55:02;9.32;;;6.25;;
67798;SDS011;54596;43.216;27.904;2023-02-28T01:57:35;9.60;;;6.93;;
67798;SDS011;54596;43.216;27.904;2023-02-28T02:00:12;9.50;;;7.00;;
67798;SDS011;54596;43.216;27.904;2023-02-28T02:02:44;9.30;;;6.57;;
67798;SDS011;54596;43.216;27.904;2023-02-28T02:05:14;9.93;;;6.82;;
67798;SDS011;54596;43.216;27.904;2023-02-28T02:07:45;10.27;;;6.43;;
67798;SDS011;54596;43.216;27.904;2023-02-28T02:22:00;8.32;;;5.50;;
67798;SDS011;54596;43.216;27.904;2023-02-28T02:35:55;8.38;;;5.50;;
67798;SDS011;54596;43.216;27.904;2023-02-28T02:44:50;8.77;;;5.63;;
67798;SDS011;54596;43.216;27.904;2023-02-28T02:47:14;9.75;;;5.60;;
67798;SDS011;54596;43.216;27.904;2023-02-28T02:49:44;10.45;;;5.30;;
67798;SDS011;54596;43.216;27.904;2023-02-28T02:52:15;7.97;;;5.25;;
67798;SDS011;54596;43.216;27.904;2023-02-28T02:54:44;8.18;;;5.13;;
67798;SDS011;54596;43.216;27.904;2023-02-28T03:00:23;7.88;;;5.20;;
67798;SDS011;54596;43.216;27.904;2023-02-28T03:02:58;8.02;;;4.95;;
67798;SDS011;54596;43.216;27.904;2023-02-28T03:05:26;7.72;;;4.95;;
67798;SDS011;54596;43.216;27.904;2023-02-28T03:07:59;10.77;;;6.00;;
67798;SDS011;54596;43.216;27.904;2023-02-28T03:10:29;10.93;;;6.20;;
67798;SDS011;54596;43.216;27.904;2023-02-28T03:13:19;8.63;;;4.90;;
67798;SDS011;54596;43.216;27.904;2023-02-28T03:22:19;8.90;;;4.35;;
67798;SDS011;54596;43.216;27.904;2023-02-28T03:27:31;10.15;;;6.82;;
67798;SDS011;54596;43.216;27.904;2023-02-28T03:30:09;8.55;;;5.22;;
67798;SDS011;54596;43.216;27.904;2023-02-28T03:35:30;8.95;;;5.30;;
67798;SDS011;54596;43.216;27.904;2023-02-28T03:38:05;9.00;;;5.40;;
67798;SDS011;54596;43.216;27.904;2023-02-28T03:40:39;9.23;;;5.82;;
67798;SDS011;54596;43.216;27.904;2023-02-28T03:43:10;8.80;;;5.95;;
67798;SDS011;54596;43.216;27.904;2023-02-28T03:45:39;9.30;;;6.50;;
67798;SDS011;54596;43.216;27.904;2023-02-28T03:48:11;11.32;;;6.97;;
67798;SDS011;54596;43.216;27.904;2023-02-28T03:50:44;10.80;;;7.05;;
67798;SDS011;54596;43.216;27.904;2023-02-28T03:55:45;9.95;;;6.90;;
67798;SDS011;54596;43.216;27.904;2023-02-28T04:00:46;10.20;;;6.90;;
67798;SDS011;54596;43.216;27.904;2023-02-28T04:03:15;9.80;;;7.00;;
67798;SDS011;54596;43.216;27.904;2023-02-28T04:05:49;11.25;;;6.95;;
67798;SDS011;54596;43.216;27.904;2023-02-28T04:08:17;10.82;;;6.70;;
67798;SDS011;54596;43.216;27.904;2023-02-28T04:10:43;11.95;;;6.55;;
67798;SDS011;54596;43.216;27.904;2023-02-28T04:13:13;9.73;;;6.90;;
67798;SDS011;54596;43.216;27.904;2023-02-28T04:15:38;11.10;;;7.32;;
67798;SDS011;54596;43.216;27.904;2023-02-28T04:18:04;10.77;;;7.10;;
67798;SDS011;54596;43.216;27.904;2023-02-28T04:20:29;10.70;;;7.00;;
67798;SDS011;54596;43.216;27.904;2023-02-28T04:22:54;12.13;;;8.13;;
67798;SDS011;54596;43.216;27.904;2023-02-28T04:25:20;11.45;;;7.05;;
67798;SDS011;54596;43.216;27.904;2023-02-28T04:27:45;12.23;;;8.15;;
67798;SDS011;54596;43.216;27.904;2023-02-28T04:30:11;12.05;;;8.15;;
67798;SDS011;54596;43.216;27.904;2023-02-28T04:32:37;12.90;;;9.65;;
67798;SDS011;54596;43.216;27.904;2023-02-28T04:35:02;13.13;;;8.98;;
67798;SDS011;54596;43.216;27.904;2023-02-28T04:37:28;12.18;;;7.88;;
67798;SDS011;54596;43.216;27.904;2023-02-28T04:39:54;12.73;;;8.30;;
67798;SDS011;54596;43.216;27.904;2023-02-28T04:42:20;14.27;;;10.32;;
67798;SDS011;54596;43.216;27.904;2023-02-28T04:44:45;11.93;;;8.52;;
67798;SDS011;54596;43.216;27.904;2023-02-28T04:47:12;12.77;;;8.95;;
67798;SDS011;54596;43.216;27.904;2023-02-28T04:49:37;14.75;;;9.15;;
67798;SDS011;54596;43.216;27.904;2023-02-28T04:52:03;14.70;;;9.93;;
67798;SDS011;54596;43.216;27.904;2023-02-28T04:54:29;15.43;;;9.60;;
67798;SDS011;54596;43.216;27.904;2023-02-28T04:56:54;13.75;;;10.30;;
67798;SDS011;54596;43.216;27.904;2023-02-28T04:59:20;13.82;;;10.05;;
67798;SDS011;54596;43.216;27.904;2023-02-28T05:01:46;13.23;;;9.88;;
67798;SDS011;54596;43.216;27.904;2023-02-28T05:04:13;14.65;;;10.57;;
67798;SDS011;54596;43.216;27.904;2023-02-28T05:06:39;16.85;;;11.02;;
67798;SDS011;54596;43.216;27.904;2023-02-28T05:09:04;16.83;;;11.50;;
67798;SDS011;54596;43.216;27.904;2023-02-28T05:11:31;21.13;;;11.82;;
67798;SDS011;54596;43.216;27.904;2023-02-28T05:14:04;17.02;;;12.30;;
67798;SDS011;54596;43.216;27.904;2023-02-28T05:16:32;18.77;;;12.75;;
67798;SDS011;54596;43.216;27.904;2023-02-28T05:18:57;20.13;;;12.93;;
67798;SDS011;54596;43.216;27.904;2023-02-28T05:23:52;18.83;;;13.25;;
67798;SDS011;54596;43.216;27.904;2023-02-28T05:26:18;23.33;;;14.45;;
67798;SDS011;54596;43.216;27.904;2023-02-28T05:28:44;20.75;;;14.40;;
67798;SDS011;54596;43.216;27.904;2023-02-28T05:31:12;19.50;;;14.15;;
67798;SDS011;54596;43.216;27.904;2023-02-28T05:33:38;18.85;;;14.38;;
67798;SDS011;54596;43.216;27.904;2023-02-28T05:36:04;22.02;;;16.48;;
67798;SDS011;54596;43.216;27.904;2023-02-28T05:38:30;22.83;;;14.82;;
67798;SDS011;54596;43.216;27.904;2023-02-28T05:40:57;28.13;;;21.33;;
67798;SDS011;54596;43.216;27.904;2023-02-28T05:43:22;21.67;;;16.25;;
67798;SDS011;54596;43.216;27.904;2023-02-28T05:45:48;23.27;;;16.10;;
67798;SDS011;54596;43.216;27.904;2023-02-28T05:48:14;24.70;;;18.98;;
67798;SDS011;54596;43.216;27.904;2023-02-28T05:50:39;290.98;;;34.30;;
67798;SDS011;54596;43.216;27.904;2023-02-28T05:53:05;24.38;;;19.27;;
67798;SDS011;54596;43.216;27.904;2023-02-28T05:55:31;21.55;;;16.88;;
67798;SDS011;54596;43.216;27.904;2023-02-28T05:57:56;21.85;;;17.25;;
67798;SDS011;54596;43.216;27.904;2023-02-28T06:00:22;25.67;;;18.67;;
67798;SDS011;54596;43.216;27.904;2023-02-28T06:02:48;24.50;;;19.08;;
67798;SDS011;54596;43.216;27.904;2023-02-28T06:05:14;26.00;;;19.95;;
67798;SDS011;54596;43.216;27.904;2023-02-28T06:07:42;27.08;;;21.02;;
67798;SDS011;54596;43.216;27.904;2023-02-28T06:10:09;23.13;;;18.73;;
67798;SDS011;54596;43.216;27.904;2023-02-28T06:12:36;25.00;;;19.35;;
67798;SDS011;54596;43.216;27.904;2023-02-28T06:15:02;25.35;;;20.27;;
67798;SDS011;54596;43.216;27.904;2023-02-28T06:17:27;25.65;;;20.13;;
67798;SDS011;54596;43.216;27.904;2023-02-28T06:19:53;28.05;;;20.55;;
67798;SDS011;54596;43.216;27.904;2023-02-28T06:22:18;32.33;;;25.20;;
67798;SDS011;54596;43.216;27.904;2023-02-28T06:24:44;25.15;;;20.02;;
67798;SDS011;54596;43.216;27.904;2023-02-28T06:27:09;32.67;;;24.95;;
67798;SDS011;54596;43.216;27.904;2023-02-28T06:29:35;25.52;;;20.15;;
67798;SDS011;54596;43.216;27.904;2023-02-28T06:32:01;29.85;;;24.92;;
67798;SDS011;54596;43.216;27.904;2023-02-28T06:34:27;30.58;;;27.17;;
67798;SDS011;54596;43.216;27.904;2023-02-28T06:36:52;25.83;;;19.83;;
67798;SDS011;54596;43.216;27.904;2023-02-28T06:39:18;26.55;;;21.25;;
67798;SDS011;54596;43.216;27.904;2023-02-28T06:41:44;21.58;;;18.13;;
67798;SDS011;54596;43.216;27.904;2023-02-28T06:44:15;22.70;;;17.75;;
67798;SDS011;54596;43.216;27.904;2023-02-28T06:46:42;20.90;;;16.35;;
67798;SDS011;54596;43.216;27.904;2023-02-28T06:49:09;24.83;;;21.05;;
67798;SDS011;54596;43.216;27.904;2023-02-28T06:51:35;20.55;;;15.88;;
67798;SDS011;54596;43.216;27.904;2023-02-28T06:54:03;23.40;;;16.65;;
67798;SDS011;54596;43.216;27.904;2023-02-28T06:56:29;20.38;;;16.45;;
67798;SDS011;54596;43.216;27.904;2023-02-28T06:58:54;21.67;;;16.70;;
67798;SDS011;54596;43.216;27.904;2023-02-28T07:01:24;21.08;;;16.83;;
67798;SDS011;54596;43.216;27.904;2023-02-28T07:03:49;22.08;;;16.27;;
67798;SDS011;54596;43.216;27.904;2023-02-28T07:06:19;20.90;;;16.08;;
67798;SDS011;54596;43.216;27.904;2023-02-28T07:08:49;19.63;;;14.50;;
67798;SDS011;54596;43.216;27.904;2023-02-28T07:11:16;21.05;;;16.25;;
67798;SDS011;54596;43.216;27.904;2023-02-28T07:13:41;19.60;;;14.63;;
67798;SDS011;54596;43.216;27.904;2023-02-28T07:16:08;21.05;;;15.57;;
67798;SDS011;54596;43.216;27.904;2023-02-28T07:18:37;19.88;;;14.90;;
67798;SDS011;54596;43.216;27.904;2023-02-28T07:21:03;17.45;;;12.27;;
67798;SDS011;54596;43.216;27.904;2023-02-28T07:23:30;16.23;;;13.05;;
67798;SDS011;54596;43.216;27.904;2023-02-28T07:25:56;16.88;;;13.68;;
67798;SDS011;54596;43.216;27.904;2023-02-28T07:28:21;18.40;;;13.55;;
67798;SDS011;54596;43.216;27.904;2023-02-28T07:30:46;17.52;;;12.80;;
67798;SDS011;54596;43.216;27.904;2023-02-28T07:33:13;15.93;;;11.93;;
67798;SDS011;54596;43.216;27.904;2023-02-28T07:35:38;17.95;;;13.52;;
67798;SDS011;54596;43.216;27.904;2023-02-28T07:38:04;19.40;;;13.07;;
67798;SDS011;54596;43.216;27.904;2023-02-28T07:40:29;16.00;;;12.05;;
67798;SDS011;54596;43.216;27.904;2023-02-28T07:42:55;17.17;;;13.00;;
67798;SDS011;54596;43.216;27.904;2023-02-28T07:45:20;16.17;;;12.82;;
67798;SDS011;54596;43.216;27.904;2023-02-28T07:47:46;16.52;;;12.75;;
67798;SDS011;54596;43.216;27.904;2023-02-28T07:50:14;18.83;;;13.88;;
67798;SDS011;54596;43.216;27.904;2023-02-28T07:52:40;17.17;;;12.93;;
67798;SDS011;54596;43.216;27.904;2023-02-28T07:55:08;20.98;;;13.63;;
67798;SDS011;54596;43.216;27.904;2023-02-28T07:57:35;15.82;;;11.52;;
67798;SDS011;54596;43.216;27.904;2023-02-28T08:00:03;15.80;;;11.65;;
67798;SDS011;54596;43.216;27.904;2023-02-28T08:02:30;17.45;;;11.65;;
67798;SDS011;54596;43.216;27.904;2023-02-28T08:04:55;15.07;;;11.80;;
67798;SDS011;54596;43.216;27.904;2023-02-28T08:07:22;16.15;;;12.77;;
67798;SDS011;54596;43.216;27.904;2023-02-28T08:09:47;16.35;;;12.00;;
67798;SDS011;54596;43.216;27.904;2023-02-28T08:12:13;17.55;;;12.05;;
67798;SDS011;54596;43.216;27.904;2023-02-28T08:14:38;18.73;;;12.43;;
67798;SDS011;54596;43.216;27.904;2023-02-28T08:17:05;17.63;;;13.48;;
67798;SDS011;54596;43.216;27.904;2023-02-28T08:19:31;15.15;;;11.50;;
67798;SDS011;54596;43.216;27.904;2023-02-28T08:21:57;13.95;;;10.63;;
67798;SDS011;54596;43.216;27.904;2023-02-28T08:24:23;16.60;;;12.13;;
67798;SDS011;54596;43.216;27.904;2023-02-28T08:26:48;16.52;;;12.30;;
67798;SDS011;54596;43.216;27.904;2023-02-28T08:29:15;15.43;;;12.05;;
67798;SDS011;54596;43.216;27.904;2023-02-28T08:31:41;18.08;;;12.40;;
67798;SDS011;54596;43.216;27.904;2023-02-28T08:34:07;16.65;;;12.43;;
67798;SDS011;54596;43.216;27.904;2023-02-28T08:36:34;16.38;;;11.48;;
67798;SDS011;54596;43.216;27.904;2023-02-28T08:39:00;18.20;;;11.90;;
67798;SDS011;54596;43.216;27.904;2023-02-28T08:41:26;16.50;;;11.82;;
67798;SDS011;54596;43.216;27.904;2023-02-28T08:43:51;17.73;;;11.63;;
67798;SDS011;54596;43.216;27.904;2023-02-28T08:46:18;17.10;;;11.57;;
67798;SDS011;54596;43.216;27.904;2023-02-28T08:48:44;18.83;;;12.38;;
67798;SDS011;54596;43.216;27.904;2023-02-28T08:51:11;17.48;;;12.68;;
67798;SDS011;54596;43.216;27.904;2023-02-28T08:53:41;17.90;;;13.98;;
67798;SDS011;54596;43.216;27.904;2023-02-28T08:56:10;16.65;;;11.57;;
67798;SDS011;54596;43.216;27.904;2023-02-28T08:58:37;15.30;;;10.93;;
67798;SDS011;54596;43.216;27.904;2023-02-28T09:01:10;15.35;;;11.43;;
67798;SDS011;54596;43.216;27.904;2023-02-28T09:03:40;23.48;;;18.20;;
67798;SDS011;54596;43.216;27.904;2023-02-28T09:06:07;14.35;;;11.35;;
67798;SDS011;54596;43.216;27.904;2023-02-28T09:08:34;17.92;;;12.57;;
67798;SDS011;54596;43.216;27.904;2023-02-28T09:11:01;15.70;;;12.35;;
67798;SDS011;54596;43.216;27.904;2023-02-28T09:13:28;16.85;;;11.65;;
67798;SDS011;54596;43.216;27.904;2023-02-28T09:15:56;13.85;;;10.23;;
67798;SDS011;54596;43.216;27.904;2023-02-28T09:18:23;13.52;;;10.40;;
67798;SDS011;54596;43.216;27.904;2023-02-28T09:20:48;15.07;;;11.20;;
67798;SDS011;54596;43.216;27.904;2023-02-28T09:23:14;15.20;;;10.85;;
67798;SDS011;54596;43.216;27.904;2023-02-28T09:25:49;14.73;;;11.35;;
67798;SDS011;54596;43.216;27.904;2023-02-28T09:28:17;17.38;;;13.05;;
67798;SDS011;54596;43.216;27.904;2023-02-28T09:30:47;16.67;;;11.25;;
67798;SDS011;54596;43.216;27.904;2023-02-28T09:33:14;14.65;;;11.23;;
67798;SDS011;54596;43.216;27.904;2023-02-28T09:35:41;14.23;;;11.20;;
67798;SDS011;54596;43.216;27.904;2023-02-28T09:38:08;14.65;;;10.75;;
67798;SDS011;54596;43.216;27.904;2023-02-28T09:40:40;16.65;;;11.23;;
67798;SDS011;54596;43.216;27.904;2023-02-28T09:43:14;14.80;;;9.95;;
67798;SDS011;54596;43.216;27.904;2023-02-28T09:45:42;15.02;;;10.00;;
67798;SDS011;54596;43.216;27.904;2023-02-28T09:48:27;16.90;;;10.85;;
67798;SDS011;54596;43.216;27.904;2023-02-28T09:51:04;14.73;;;10.63;;
67798;SDS011;54596;43.216;27.904;2023-02-28T09:53:37;14.13;;;10.00;;
67798;SDS011;54596;43.216;27.904;2023-02-28T09:56:09;16.83;;;10.40;;
67798;SDS011;54596;43.216;27.904;2023-02-28T09:58:57;15.02;;;11.02;;
67798;SDS011;54596;43.216;27.904;2023-02-28T10:04:40;14.27;;;10.23;;
67798;SDS011;54596;43.216;27.904;2023-02-28T10:10:50;14.88;;;10.18;;
67798;SDS011;54596;43.216;27.904;2023-02-28T10:16:46;15.75;;;9.80;;
67798;SDS011;54596;43.216;27.904;2023-02-28T10:19:30;12.93;;;9.32;;
67798;SDS011;54596;43.216;27.904;2023-02-28T10:22:01;15.27;;;10.93;;
67798;SDS011;54596;43.216;27.904;2023-02-28T10:24:40;17.75;;;11.82;;
67798;SDS011;54596;43.216;27.904;2023-02-28T10:27:15;14.80;;;9.90;;
67798;SDS011;54596;43.216;27.904;2023-02-28T10:29:47;14.48;;;9.27;;
67798;SDS011;54596;43.216;27.904;2023-02-28T10:32:18;13.70;;;9.57;;
67798;SDS011;54596;43.216;27.904;2023-02-28T10:37:40;14.73;;;9.70;;
67798;SDS011;54596;43.216;27.904;2023-02-28T10:40:07;12.68;;;9.20;;
67798;SDS011;54596;43.216;27.904;2023-02-28T10:45:25;13.77;;;9.48;;
67798;SDS011;54596;43.216;27.904;2023-02-28T10:48:02;12.45;;;8.77;;
67798;SDS011;54596;43.216;27.904;2023-02-28T10:50:52;14.70;;;9.43;;
67798;SDS011;54596;43.216;27.904;2023-02-28T11:06:43;12.88;;;9.40;;
67798;SDS011;54596;43.216;27.904;2023-02-28T11:09:55;16.67;;;11.02;;
67798;SDS011;54596;43.216;27.904;2023-02-28T11:11:59;16.23;;;11.45;;
67798;SDS011;54596;43.216;27.904;2023-02-28T11:14:26;16.85;;;10.10;;
67798;SDS011;54596;43.216;27.904;2023-02-28T11:16:55;17.10;;;10.20;;
67798;SDS011;54596;43.216;27.904;2023-02-28T11:19:34;19.42;;;10.32;;
67798;SDS011;54596;43.216;27.904;2023-02-28T11:22:05;14.10;;;9.77;;
67798;SDS011;54596;43.216;27.904;2023-02-28T11:24:33;23.50;;;10.73;;
67798;SDS011;54596;43.216;27.904;2023-02-28T11:27:02;17.45;;;10.15;;
67798;SDS011;54596;43.216;27.904;2023-02-28T11:29:30;16.83;;;10.88;;
67798;SDS011;54596;43.216;27.904;2023-02-28T11:34:45;14.27;;;9.57;;
67798;SDS011;54596;43.216;27.904;2023-02-28T11:37:13;23.77;;;10.77;;
67798;SDS011;54596;43.216;27.904;2023-02-28T11:39:41;16.88;;;10.55;;
67798;SDS011;54596;43.216;27.904;2023-02-28T11:47:49;14.73;;;10.20;;
67798;SDS011;54596;43.216;27.904;2023-02-28T12:02:02;20.30;;;10.38;;
67798;SDS011;54596;43.216;27.904;2023-02-28T12:10:41;23.95;;;12.18;;
67798;SDS011;54596;43.216;27.904;2023-02-28T12:13:23;15.05;;;10.05;;
67798;SDS011;54596;43.216;27.904;2023-02-28T12:27:31;16.95;;;10.50;;
67798;SDS011;54596;43.216;27.904;2023-02-28T12:33:01;17.50;;;10.18;;
67798;SDS011;54596;43.216;27.904;2023-02-28T12:35:38;18.98;;;10.32;;
67798;SDS011;54596;43.216;27.904;2023-02-28T12:38:10;14.80;;;10.10;;
67798;SDS011;54596;43.216;27.904;2023-02-28T12:40:45;20.63;;;11.13;;
67798;SDS011;54596;43.216;27.904;2023-02-28T12:43:16;22.42;;;12.27;;
67798;SDS011;54596;43.216;27.904;2023-02-28T12:45:45;22.20;;;11.80;;
67798;SDS011;54596;43.216;27.904;2023-02-28T12:48:25;24.20;;;12.68;;
67798;SDS011;54596;43.216;27.904;2023-02-28T12:50:56;17.83;;;11.20;;
67798;SDS011;54596;43.216;27.904;2023-02-28T12:54:25;21.65;;;13.05;;
67798;SDS011;54596;43.216;27.904;2023-02-28T12:59:50;20.73;;;12.10;;
67798;SDS011;54596;43.216;27.904;2023-02-28T13:10:52;33.92;;;14.52;;
67798;SDS011;54596;43.216;27.904;2023-02-28T13:13:22;21.52;;;13.55;;
67798;SDS011;54596;43.216;27.904;2023-02-28T13:16:00;19.48;;;12.10;;
67798;SDS011;54596;43.216;27.904;2023-02-28T13:21:02;23.00;;;13.25;;
67798;SDS011;54596;43.216;27.904;2023-02-28T13:23:39;25.05;;;13.57;;
67798;SDS011;54596;43.216;27.904;2023-02-28T13:26:05;26.92;;;14.02;;
67798;SDS011;54596;43.216;27.904;2023-02-28T13:31:23;29.27;;;14.60;;
67798;SDS011;54596;43.216;27.904;2023-02-28T13:47:24;24.98;;;14.18;;
67798;SDS011;54596;43.216;27.904;2023-02-28T13:49:28;28.80;;;14.70;;
67798;SDS011;54596;43.216;27.904;2023-02-28T14:00:19;27.45;;;17.33;;
67798;SDS011;54596;43.216;27.904;2023-02-28T14:03:03;34.75;;;18.17;;
67798;SDS011;54596;43.216;27.904;2023-02-28T14:05:31;32.42;;;18.30;;
67798;SDS011;54596;43.216;27.904;2023-02-28T14:07:59;29.58;;;16.73;;
67798;SDS011;54596;43.216;27.904;2023-02-28T14:15:56;32.72;;;21.95;;
67798;SDS011;54596;43.216;27.904;2023-02-28T14:18:34;22.85;;;15.20;;
67798;SDS011;54596;43.216;27.904;2023-02-28T14:21:28;20.88;;;14.30;;
67798;SDS011;54596;43.216;27.904;2023-02-28T14:29:50;33.28;;;19.45;;
67798;SDS011;54596;43.216;27.904;2023-02-28T14:32:37;22.90;;;15.93;;
67798;SDS011;54596;43.216;27.904;2023-02-28T14:37:42;28.08;;;16.70;;
67798;SDS011;54596;43.216;27.904;2023-02-28T14:40:17;32.70;;;16.73;;
67798;SDS011;54596;43.216;27.904;2023-02-28T14:43:03;24.10;;;16.20;;
67798;SDS011;54596;43.216;27.904;2023-02-28T14:45:31;27.52;;;17.67;;
67798;SDS011;54596;43.216;27.904;2023-02-28T14:47:58;27.02;;;16.65;;
67798;SDS011;54596;43.216;27.904;2023-02-28T14:50:27;20.45;;;14.65;;
67798;SDS011;54596;43.216;27.904;2023-02-28T14:52:56;23.60;;;14.68;;
67798;SDS011;54596;43.216;27.904;2023-02-28T14:55:29;24.63;;;15.85;;
67798;SDS011;54596;43.216;27.904;2023-02-28T14:57:59;28.20;;;17.25;;
67798;SDS011;54596;43.216;27.904;2023-02-28T15:00:34;26.08;;;16.33;;
67798;SDS011;54596;43.216;27.904;2023-02-28T15:03:17;30.10;;;17.50;;
67798;SDS011;54596;43.216;27.904;2023-02-28T15:05:54;27.10;;;16.48;;
67798;SDS011;54596;43.216;27.904;2023-02-28T15:08:21;32.05;;;18.75;;
67798;SDS011;54596;43.216;27.904;2023-02-28T15:10:54;26.65;;;17.08;;
67798;SDS011;54596;43.216;27.904;2023-02-28T15:13:20;20.23;;;14.07;;
67798;SDS011;54596;43.216;27.904;2023-02-28T15:15:56;26.60;;;17.50;;
67798;SDS011;54596;43.216;27.904;2023-02-28T15:20:58;36.83;;;17.93;;
67798;SDS011;54596;43.216;27.904;2023-02-28T15:23:31;22.40;;;14.43;;
67798;SDS011;54596;43.216;27.904;2023-02-28T15:25:59;33.50;;;16.48;;
67798;SDS011;54596;43.216;27.904;2023-02-28T15:28:25;26.20;;;15.57;;
67798;SDS011;54596;43.216;27.904;2023-02-28T15:30:54;22.15;;;14.52;;
67798;SDS011;54596;43.216;27.904;2023-02-28T15:33:33;28.65;;;16.35;;
67798;SDS011;54596;43.216;27.904;2023-02-28T15:36:32;26.50;;;16.38;;
67798;SDS011;54596;43.216;27.904;2023-02-28T15:38:53;27.70;;;17.00;;
67798;SDS011;54596;43.216;27.904;2023-02-28T15:41:27;27.63;;;15.38;;
67798;SDS011;54596;43.216;27.904;2023-02-28T15:44:16;26.17;;;16.48;;
67798;SDS011;54596;43.216;27.904;2023-02-28T15:47:05;27.60;;;16.05;;
67798;SDS011;54596;43.216;27.904;2023-02-28T15:49:40;24.33;;;16.25;;
67798;SDS011;54596;43.216;27.904;2023-02-28T15:52:22;24.25;;;17.02;;
67798;SDS011;54596;43.216;27.904;2023-02-28T15:54:56;20.63;;;14.43;;
67798;SDS011;54596;43.216;27.904;2023-02-28T15:57:24;21.73;;;14.55;;
67798;SDS011;54596;43.216;27.904;2023-02-28T15:59:52;26.52;;;15.98;;
67798;SDS011;54596;43.216;27.904;2023-02-28T16:02:41;26.42;;;15.95;;
67798;SDS011;54596;43.216;27.904;2023-02-28T16:07:35;25.42;;;15.40;;
67798;SDS011;54596;43.216;27.904;2023-02-28T16:10:03;28.60;;;15.93;;
67798;SDS011;54596;43.216;27.904;2023-02-28T16:12:31;30.63;;;15.50;;
67798;SDS011;54596;43.216;27.904;2023-02-28T16:14:59;23.27;;;14.43;;
67798;SDS011;54596;43.216;27.904;2023-02-28T16:17:33;25.90;;;15.70;;
67798;SDS011;54596;43.216;27.904;2023-02-28T16:20:00;22.42;;;16.15;;
67798;SDS011;54596;43.216;27.904;2023-02-28T16:22:31;27.95;;;16.20;;
67798;SDS011;54596;43.216;27.904;2023-02-28T16:24:56;32.13;;;17.98;;
67798;SDS011;54596;43.216;27.904;2023-02-28T16:27:32;30.52;;;17.33;;
67798;SDS011;54596;43.216;27.904;2023-02-28T16:30:00;47.50;;;25.52;;
67798;SDS011;54596;43.216;27.904;2023-02-28T16:32:28;30.75;;;15.77;;
67798;SDS011;54596;43.216;27.904;2023-02-28T16:34:53;30.17;;;15.77;;
67798;SDS011;54596;43.216;27.904;2023-02-28T16:37:19;24.80;;;15.85;;
67798;SDS011;54596;43.216;27.904;2023-02-28T16:39:45;32.17;;;16.75;;
67798;SDS011;54596;43.216;27.904;2023-02-28T16:42:14;30.83;;;15.85;;
67798;SDS011;54596;43.216;27.904;2023-02-28T16:44:46;25.83;;;15.30;;
67798;SDS011;54596;43.216;27.904;2023-02-28T16:47:13;24.20;;;14.48;;
67798;SDS011;54596;43.216;27.904;2023-02-28T16:49:39;27.60;;;15.52;;
67798;SDS011;54596;43.216;27.904;2023-02-28T16:52:07;24.02;;;15.15;;
67798;SDS011;54596;43.216;27.904;2023-02-28T16:54:33;29.35;;;14.13;;
67798;SDS011;54596;43.216;27.904;2023-02-28T16:56:58;22.00;;;14.57;;
67798;SDS011;54596;43.216;27.904;2023-02-28T16:59:24;24.15;;;13.88;;
67798;SDS011;54596;43.216;27.904;2023-02-28T17:01:51;23.80;;;14.43;;
67798;SDS011;54596;43.216;27.904;2023-02-28T17:04:17;22.33;;;13.77;;
67798;SDS011;54596;43.216;27.904;2023-02-28T17:06:43;21.85;;;14.18;;
67798;SDS011;54596;43.216;27.904;2023-02-28T17:09:14;22.63;;;13.93;;
67798;SDS011;54596;43.216;27.904;2023-02-28T17:11:46;23.83;;;14.75;;
67798;SDS011;54596;43.216;27.904;2023-02-28T17:14:12;29.83;;;16.15;;
67798;SDS011;54596;43.216;27.904;2023-02-28T17:16:37;25.42;;;15.90;;
67798;SDS011;54596;43.216;27.904;2023-02-28T17:19:11;25.83;;;17.08;;
67798;SDS011;54596;43.216;27.904;2023-02-28T17:21:40;26.52;;;16.45;;
67798;SDS011;54596;43.216;27.904;2023-02-28T17:24:09;25.42;;;15.48;;
67798;SDS011;54596;43.216;27.904;2023-02-28T17:26:40;26.15;;;16.77;;
67798;SDS011;54596;43.216;27.904;2023-02-28T17:29:16;30.73;;;16.92;;
67798;SDS011;54596;43.216;27.904;2023-02-28T17:31:45;23.38;;;15.60;;